Time;durP1;ratioP1;P1;durP2;ratioP2;P2;SDS_P1;SDS_P2;PMS_P1;PMS_P2;Temp;Humidity;BMP_temperature;BMP_pressure;BME280_temperature;BME280_humidity;BME280_pressure;Samples;Min_cycle;Max_cycle;Signal;HPM_P1;HPM_P2
2021/12/31 00:02:15;;;;;;;10.75;9.93;;;14.20;99.90;;;;;;4696240;30;20398;-73
2021/12/31 00:04:41;;;;;;;10.80;9.57;;;14.20;99.90;;;;;;4696211;30;20038;-73
2021/12/31 00:07:07;;;;;;;10.75;9.80;;;14.30;99.90;;;;;;4696072;30;20126;-73
2021/12/31 00:09:33;;;;;;;11.07;10.05;;;14.30;99.90;;;;;;4680404;30;20057;-73
2021/12/31 00:11:58;;;;;;;12.23;11.07;;;14.30;99.90;;;;;;4695987;30;20050;-73
2021/12/31 00:14:25;;;;;;;11.57;10.57;;;14.30;99.90;;;;;;4695960;30;20052;-73
2021/12/31 00:16:50;;;;;;;;;;;14.30;99.90;;;;;;4696314;30;20030;-73
2021/12/31 00:19:16;;;;;;;12.35;10.73;;;14.30;99.90;;;;;;4695837;30;19918;-73
2021/12/31 00:21:46;;;;;;;13.23;12.18;;;14.30;99.90;;;;;;4680335;30;20124;-73
2021/12/31 00:24:11;;;;;;;17.52;11.40;;;14.30;99.90;;;;;;4695856;30;20089;-73
2021/12/31 00:26:37;;;;;;;14.45;11.65;;;14.30;99.90;;;;;;4694602;30;20471;-73
2021/12/31 00:29:03;;;;;;;15.90;11.32;;;14.30;99.90;;;;;;4695713;30;20046;-73
2021/12/31 00:31:29;;;;;;;13.18;10.65;;;14.30;99.90;;;;;;4695616;30;20041;-74
2021/12/31 00:33:54;;;;;;;16.35;10.50;;;14.30;99.90;;;;;;4695557;30;20046;-73
2021/12/31 00:36:20;;;;;;;12.07;10.80;;;14.30;99.90;;;;;;4695673;30;20030;-73
2021/12/31 00:38:46;;;;;;;11.45;9.95;;;14.30;99.90;;;;;;4695565;30;20061;-73
2021/12/31 00:41:12;;;;;;;;;;;14.20;99.90;;;;;;4695682;30;20065;-73
2021/12/31 00:43:38;;;;;;;12.95;8.80;;;14.20;99.90;;;;;;4695925;30;19990;-74
2021/12/31 00:46:04;;;;;;;16.10;9.38;;;14.10;99.90;;;;;;4695527;30;20045;-73
2021/12/31 00:48:30;;;;;;;14.48;10.73;;;14.10;99.90;;;;;;4695407;30;20038;-74
2021/12/31 00:50:56;;;;;;;14.20;10.40;;;14.00;99.90;;;;;;4695392;30;20457;-73
2021/12/31 00:53:23;;;;;;;20.23;10.73;;;14.00;99.90;;;;;;4679762;30;20080;-73
2021/12/31 00:55:48;;;;;;;13.50;9.45;;;14.00;99.90;;;;;;4695322;30;20061;-73
2021/12/31 00:58:14;;;;;;;16.63;9.88;;;13.90;99.90;;;;;;4695495;30;20451;-73
2021/12/31 01:00:40;;;;;;;14.02;8.30;;;13.90;99.90;;;;;;4694131;30;20041;-73
2021/12/31 01:03:06;;;;;;;16.55;9.95;;;14.00;99.90;;;;;;4694825;30;20068;-74
2021/12/31 01:05:31;;;;;;;21.25;9.25;;;13.90;99.90;;;;;;4695191;30;20104;-73
2021/12/31 01:07:57;;;;;;;15.80;9.98;;;13.90;99.90;;;;;;4679719;30;20397;-73
2021/12/31 01:10:24;;;;;;;15.13;9.35;;;13.90;99.90;;;;;;4695116;30;20053;-73
2021/12/31 01:12:51;;;;;;;20.85;12.10;;;13.90;99.90;;;;;;4695121;30;20512;-73
2021/12/31 01:15:22;;;;;;;19.52;9.15;;;13.90;99.90;;;;;;4695012;30;20041;-73
2021/12/31 01:19:44;;;;;;;15.70;8.43;;;13.90;99.90;;;;;;4695124;30;20049;-74
2021/12/31 01:20:33;;;;;;;18.08;9.90;;;13.90;99.90;;;;;;4679425;30;20056;-73
2021/12/31 01:22:59;;;;;;;14.93;8.23;;;13.90;99.90;;;;;;4694994;30;20041;-73
2021/12/31 01:25:25;;;;;;;18.75;8.88;;;14.00;99.90;;;;;;4694986;30;20531;-73
2021/12/31 01:27:51;;;;;;;18.33;8.77;;;14.00;99.90;;;;;;4693691;30;20116;-73
2021/12/31 01:30:17;;;;;;;24.88;8.70;;;14.00;99.90;;;;;;4694708;30;20041;-73
2021/12/31 01:32:45;;;;;;;18.45;9.25;;;14.00;99.90;;;;;;4694915;30;20482;-74
2021/12/31 01:35:10;;;;;;;17.63;8.45;;;14.00;99.90;;;;;;4694836;30;20043;-73
2021/12/31 01:37:36;;;;;;;13.85;8.50;;;14.00;99.90;;;;;;4695034;30;20532;-73
2021/12/31 01:40:03;;;;;;;19.20;8.23;;;13.90;99.90;;;;;;4694785;30;20033;-73
2021/12/31 01:42:32;;;;;;;16.27;9.45;;;13.90;99.90;;;;;;4694697;30;20116;-73
2021/12/31 01:45:09;;;;;;;18.60;9.82;;;13.90;99.90;;;;;;4693580;30;20074;-73
2021/12/31 01:47:46;;;;;;;25.60;9.32;;;13.80;99.90;;;;;;4694653;30;20050;-73
2021/12/31 01:50:12;;;;;;;;;;;13.80;99.90;;;;;;4695080;30;20444;-74
2021/12/31 01:52:40;;;;;;;30.75;9.93;;;13.80;99.90;;;;;;4694859;30;20383;-73
2021/12/31 01:55:10;;;;;;;19.45;7.72;;;13.80;99.90;;;;;;4694634;30;20043;-73
2021/12/31 01:57:38;;;;;;;19.15;8.63;;;13.80;99.90;;;;;;4694619;30;20037;-73
2021/12/31 02:00:05;;;;;;;17.13;8.02;;;13.80;99.90;;;;;;4694589;30;20026;-73
2021/12/31 02:02:30;;;;;;;22.52;8.65;;;13.80;99.90;;;;;;4679011;30;20065;-74
2021/12/31 02:04:56;;;;;;;15.18;7.18;;;13.80;99.90;;;;;;4694603;30;20470;-74
2021/12/31 02:07:22;;;;;;;14.60;6.03;;;13.90;99.90;;;;;;4693313;30;20037;-74
2021/12/31 02:09:52;;;;;;;13.82;7.82;;;13.90;99.90;;;;;;4694563;30;20116;-73
2021/12/31 02:12:18;;;;;;;12.85;6.68;;;14.00;99.90;;;;;;4694460;30;20045;-73
2021/12/31 02:14:45;;;;;;;14.02;7.75;;;14.00;99.90;;;;;;4694808;30;20390;-73
2021/12/31 02:17:10;;;;;;;17.35;6.93;;;14.10;99.90;;;;;;4697965;30;20034;-73
2021/12/31 02:19:37;;;;;;;13.57;7.20;;;14.10;99.90;;;;;;4697953;30;20062;-73
2021/12/31 02:22:04;;;;;;;16.27;6.80;;;14.10;99.90;;;;;;4698023;30;20042;-74
2021/12/31 02:24:30;;;;;;;19.20;6.10;;;14.00;99.90;;;;;;4697893;30;20037;-73
2021/12/31 02:26:55;;;;;;;14.57;7.75;;;14.10;99.90;;;;;;4698203;30;20044;-74
2021/12/31 02:29:25;;;;;;;17.10;7.55;;;14.10;99.90;;;;;;4697691;30;20049;-73
2021/12/31 02:31:52;;;;;;;14.75;6.97;;;14.20;99.90;;;;;;4697775;30;20034;-74
2021/12/31 02:34:19;;;;;;;13.77;6.10;;;14.20;99.90;;;;;;4697710;30;20048;-73
2021/12/31 02:36:45;;;;;;;21.45;7.30;;;14.30;99.90;;;;;;4697589;30;20038;-73
2021/12/31 02:39:11;;;;;;;;;;;14.30;99.90;;;;;;4698027;30;20034;-74
2021/12/31 02:41:37;;;;;;;16.20;7.65;;;14.30;99.90;;;;;;4697296;30;20462;-73
2021/12/31 02:44:03;;;;;;;14.50;6.65;;;14.30;99.90;;;;;;4697593;30;20419;-73
2021/12/31 02:46:28;;;;;;;;;;;14.30;99.90;;;;;;4697916;30;20457;-74
2021/12/31 02:48:58;;;;;;;17.27;5.47;;;14.30;99.90;;;;;;4697448;30;19954;-73
2021/12/31 02:51:25;;;;;;;10.15;6.53;;;14.40;99.90;;;;;;4697410;30;20037;-74
2021/12/31 02:53:53;;;;;;;10.38;5.18;;;14.40;99.90;;;;;;4681749;30;20398;-73
2021/12/31 02:56:19;;;;;;;16.42;6.82;;;14.40;99.90;;;;;;4697316;30;20047;-74
2021/12/31 02:58:45;;;;;;;14.35;6.88;;;14.40;99.90;;;;;;4697134;30;20037;-73
2021/12/31 03:01:14;;;;;;;10.63;6.60;;;14.40;99.90;;;;;;4697116;30;20044;-74
2021/12/31 03:03:41;;;;;;;9.40;7.47;;;14.30;99.90;;;;;;4697400;30;20045;-74
2021/12/31 03:06:09;;;;;;;15.20;10.15;;;14.30;99.90;;;;;;4697400;30;20059;-74
2021/12/31 03:08:40;;;;;;;20.63;10.57;;;14.20;99.90;;;;;;4696998;30;20490;-73
2021/12/31 03:11:07;;;;;;;15.00;10.32;;;14.10;99.90;;;;;;4696909;30;20037;-74
2021/12/31 03:13:36;;;;;;;18.65;10.05;;;14.00;99.90;;;;;;4696912;30;20045;-74
2021/12/31 03:16:02;;;;;;;14.07;9.20;;;13.90;99.90;;;;;;4696913;30;20105;-74
2021/12/31 03:18:28;;;;;;;;;;;13.80;99.90;;;;;;4697272;30;20445;-73
2021/12/31 03:20:59;;;;;;;7.53;6.40;;;13.80;99.90;;;;;;4696952;30;19935;-74
2021/12/31 03:23:25;;;;;;;13.20;6.75;;;13.80;99.90;;;;;;4696920;30;20501;-74
2021/12/31 03:25:51;;;;;;;13.80;6.15;;;13.80;99.90;;;;;;4696890;30;20152;-73
2021/12/31 03:28:18;;;;;;;16.30;6.07;;;13.80;99.90;;;;;;4696847;30;20557;-73
2021/12/31 03:30:44;;;;;;;12.93;6.28;;;13.80;99.90;;;;;;4696697;30;20034;-73
2021/12/31 03:33:09;;;;;;;11.55;4.97;;;13.80;99.90;;;;;;4696752;30;20048;-73
2021/12/31 03:35:35;;;;;;;9.13;4.45;;;13.80;99.90;;;;;;4696733;30;20499;-74
2021/12/31 03:38:01;;;;;;;10.98;5.18;;;13.90;99.90;;;;;;4681061;30;20402;-73
2021/12/31 03:40:27;;;;;;;13.80;5.70;;;13.90;99.90;;;;;;4680971;30;20177;-74
2021/12/31 03:42:52;;;;;;;12.43;6.25;;;14.00;99.90;;;;;;4680875;30;20410;-74
2021/12/31 03:45:18;;;;;;;9.77;4.88;;;14.00;99.90;;;;;;4681090;30;20033;-73
2021/12/31 03:47:44;;;;;;;12.02;4.80;;;13.90;99.90;;;;;;4680842;30;20059;-74
2021/12/31 03:50:09;;;;;;;7.20;4.43;;;13.90;99.90;;;;;;4696767;30;20042;-74
2021/12/31 03:52:39;;;;;;;13.95;5.40;;;13.90;99.90;;;;;;4696494;30;20113;-74
2021/12/31 03:55:08;;;;;;;12.82;5.68;;;13.80;99.90;;;;;;4696581;30;20034;-74
2021/12/31 03:57:34;;;;;;;8.70;4.43;;;13.80;99.90;;;;;;4696218;30;20069;-73
2021/12/31 04:00:00;;;;;;;9.40;4.15;;;13.80;99.90;;;;;;4696232;30;20494;-73
2021/12/31 04:02:26;;;;;;;;;;;13.80;99.90;;;;;;4696657;30;20033;-74
2021/12/31 04:04:52;;;;;;;12.07;5.00;;;13.80;99.90;;;;;;4696681;30;20059;-73
2021/12/31 04:07:17;;;;;;;14.00;5.85;;;13.80;99.90;;;;;;4696105;30;20046;-73
2021/12/31 04:09:43;;;;;;;9.93;5.40;;;13.80;99.90;;;;;;4696177;30;20044;-74
2021/12/31 04:12:09;;;;;;;16.85;5.70;;;13.80;99.90;;;;;;4696108;30;20053;-73
2021/12/31 04:14:34;;;;;;;7.13;4.10;;;13.80;99.90;;;;;;4696078;30;20041;-74
2021/12/31 04:17:00;;;;;;;13.02;3.10;;;13.90;99.90;;;;;;4695969;30;20060;-74
2021/12/31 04:19:26;;;;;;;13.50;4.30;;;14.00;99.90;;;;;;4695974;30;20100;-74
2021/12/31 04:21:52;;;;;;;16.42;4.32;;;14.10;99.90;;;;;;4695936;30;20397;-74
2021/12/31 04:24:51;;;;;;;14.18;4.32;;;14.20;99.90;;;;;;4695926;30;20045;-74
2021/12/31 04:27:12;;;;;;;14.75;4.57;;;14.20;99.90;;;;;;4695117;30;20555;-74
2021/12/31 04:29:39;;;;;;;9.20;3.75;;;14.20;99.90;;;;;;4696034;30;20108;-73
2021/12/31 04:32:05;;;;;;;14.88;5.03;;;14.20;99.90;;;;;;4695683;30;20417;-74
2021/12/31 04:34:31;;;;;;;16.67;4.50;;;14.10;99.90;;;;;;4695671;30;20558;-73
2021/12/31 04:36:57;;;;;;;12.10;3.35;;;14.00;99.90;;;;;;4695577;30;20128;-74
2021/12/31 04:39:23;;;;;;;11.23;3.92;;;14.10;99.90;;;;;;4695196;30;20427;-74
2021/12/31 04:41:49;;;;;;;13.75;4.43;;;14.10;99.90;;;;;;4695454;30;20100;-73
2021/12/31 04:44:15;;;;;;;14.93;5.05;;;14.10;99.90;;;;;;4679951;30;20041;-74
2021/12/31 04:46:41;;;;;;;16.15;4.80;;;14.10;99.90;;;;;;4695496;30;20046;-73
2021/12/31 04:49:06;;;;;;;16.60;4.78;;;14.00;99.90;;;;;;4695373;30;20059;-74
2021/12/31 04:51:33;;;;;;;18.35;4.50;;;14.00;99.90;;;;;;4695415;30;20195;-74
2021/12/31 04:53:59;;;;;;;18.90;5.47;;;14.00;99.90;;;;;;4694339;30;20125;-74
2021/12/31 04:56:25;;;;;;;20.20;5.03;;;14.00;99.90;;;;;;4694233;30;20420;-74
2021/12/31 04:58:50;;;;;;;12.35;4.22;;;14.00;99.90;;;;;;4695357;30;20038;-74
2021/12/31 05:01:20;;;;;;;27.58;6.35;;;14.00;99.90;;;;;;4695270;30;20044;-74
2021/12/31 05:03:46;;;;;;;15.68;4.75;;;14.00;99.90;;;;;;4694106;30;20034;-74
2021/12/31 05:06:12;;;;;;;15.27;5.07;;;14.00;99.90;;;;;;4695202;30;20044;-74
2021/12/31 05:08:38;;;;;;;20.23;5.68;;;14.10;99.90;;;;;;4695286;30;20033;-74
2021/12/31 05:11:04;;;;;;;17.98;5.13;;;14.10;99.90;;;;;;4694973;30;20033;-74
2021/12/31 05:13:30;;;;;;;16.65;5.50;;;14.20;99.90;;;;;;4693945;30;20045;-73
2021/12/31 05:16:01;;;;;;;15.45;5.68;;;14.20;99.90;;;;;;4679480;30;20048;-74
2021/12/31 05:18:27;;;;;;;26.45;5.90;;;14.20;99.90;;;;;;4694943;30;20089;-73
2021/12/31 05:20:52;;;;;;;18.65;5.90;;;14.20;99.90;;;;;;4694969;30;20525;-74
2021/12/31 05:23:18;;;;;;;17.83;6.47;;;14.20;99.90;;;;;;4693866;30;20498;-74
2021/12/31 05:25:44;;;;;;;16.67;5.47;;;14.10;99.90;;;;;;4694923;30;20125;-74
2021/12/31 05:28:10;;;;;;;21.30;6.05;;;14.10;99.90;;;;;;4679219;30;20046;-73
2021/12/31 05:30:35;;;;;;;12.77;4.85;;;14.10;99.90;;;;;;4694824;30;20030;-74
2021/12/31 05:33:01;;;;;;;18.70;6.35;;;14.10;99.90;;;;;;4679160;30;20066;-74
2021/12/31 05:35:27;;;;;;;22.33;8.60;;;14.20;99.90;;;;;;4694811;30;20190;-74
2021/12/31 05:37:53;;;;;;;15.95;7.80;;;14.20;99.90;;;;;;4694723;30;20049;-74
2021/12/31 05:40:19;;;;;;;16.45;6.57;;;14.20;99.90;;;;;;4694803;30;20034;-74
2021/12/31 05:42:45;;;;;;;20.88;8.52;;;14.10;99.90;;;;;;4694603;30;20050;-74
2021/12/31 05:45:14;;;;;;;17.52;7.13;;;14.00;99.90;;;;;;4694788;30;20065;-74
2021/12/31 05:47:40;;;;;;;21.08;7.72;;;14.00;99.90;;;;;;4694610;30;20052;-74
2021/12/31 05:50:17;;;;;;;21.80;7.10;;;13.90;99.90;;;;;;4679182;30;20040;-74
2021/12/31 05:52:43;;;;;;;23.63;7.20;;;13.80;99.90;;;;;;4694696;30;20044;-74
2021/12/31 05:55:09;;;;;;;19.27;6.82;;;13.80;99.90;;;;;;4694699;30;20037;-74
2021/12/31 05:57:35;;;;;;;27.10;8.80;;;13.80;99.90;;;;;;4694989;30;20116;-73
2021/12/31 06:00:01;;;;;;;22.92;7.80;;;13.70;99.90;;;;;;4694611;30;20107;-74
2021/12/31 06:02:26;;;;;;;21.48;5.45;;;13.70;99.90;;;;;;4694537;30;20158;-74
2021/12/31 06:04:52;;;;;;;23.60;5.72;;;13.80;99.90;;;;;;4694630;30;20733;-74
2021/12/31 06:07:17;;;;;;;17.25;7.47;;;13.80;99.90;;;;;;4693271;30;20113;-74
2021/12/31 06:09:43;;;;;;;13.68;4.45;;;13.70;99.90;;;;;;4694516;30;20105;-74
2021/12/31 06:12:09;;;;;;;19.20;6.22;;;13.80;99.90;;;;;;4664691;30;20080;-74
2021/12/31 06:14:35;;;;;;;17.33;6.50;;;13.70;99.90;;;;;;4694376;30;20041;-74
2021/12/31 06:17:06;;;;;;;;;;;13.80;99.90;;;;;;4693596;30;20045;-74
2021/12/31 06:19:32;;;;;;;19.95;7.50;;;13.70;99.90;;;;;;4694403;30;19912;-74
2021/12/31 06:21:58;;;;;;;;;;;13.70;99.90;;;;;;4694799;30;20030;-74
2021/12/31 06:24:24;;;;;;;18.90;7.43;;;13.60;99.90;;;;;;4694368;30;19990;-74
2021/12/31 06:26:49;;;;;;;18.83;6.80;;;13.60;99.90;;;;;;4694386;30;20101;-74
2021/12/31 06:29:15;;;;;;;20.48;7.63;;;13.50;99.90;;;;;;4694190;30;20045;-74
2021/12/31 06:31:41;;;;;;;13.50;6.57;;;13.50;99.90;;;;;;4694210;30;20245;-74
2021/12/31 06:34:06;;;;;;;17.23;6.70;;;13.50;99.90;;;;;;4694384;30;20046;-74
2021/12/31 06:36:32;;;;;;;16.27;7.25;;;13.70;99.90;;;;;;4678610;30;20482;-74
2021/12/31 06:39:01;;;;;;;19.05;5.93;;;13.70;99.90;;;;;;4694250;30;20049;-74
2021/12/31 06:41:27;;;;;;;13.57;5.10;;;13.80;99.90;;;;;;4694213;30;20038;-74
2021/12/31 06:43:53;;;;;;;21.27;5.80;;;13.80;99.90;;;;;;4678488;30;20057;-74
2021/12/31 06:46:20;;;;;;;18.15;4.95;;;13.90;99.90;;;;;;4694720;30;20505;-74
2021/12/31 06:48:46;;;;;;;15.50;6.10;;;13.90;99.90;;;;;;4694126;30;20042;-74
2021/12/31 06:51:12;;;;;;;;;;;14.00;99.90;;;;;;4694503;30;20559;-74
2021/12/31 06:53:38;;;;;;;15.30;5.35;;;14.00;99.90;;;;;;4694208;30;19911;-73
2021/12/31 06:56:06;;;;;;;19.73;5.15;;;14.00;99.90;;;;;;4678445;30;20091;-74
2021/12/31 06:58:32;;;;;;;17.88;4.43;;;14.00;99.90;;;;;;4694006;30;20096;-74
2021/12/31 07:00:57;;;;;;;;;;;14.10;99.90;;;;;;4695084;30;20437;-74
2021/12/31 07:03:23;;;;;;;13.13;4.43;;;14.10;99.90;;;;;;4681419;30;19915;-74
2021/12/31 07:05:49;;;;;;;12.57;3.97;;;14.10;99.90;;;;;;4697062;30;20065;-74
2021/12/31 07:08:14;;;;;;;11.02;3.65;;;14.10;99.90;;;;;;4696988;30;20050;-74
2021/12/31 07:10:40;;;;;;;12.85;4.90;;;14.10;99.90;;;;;;4696951;30;20048;-74
2021/12/31 07:13:12;;;;;;;16.17;4.57;;;14.00;99.90;;;;;;4695827;30;20037;-74
2021/12/31 07:15:39;;;;;;;18.42;5.53;;;13.90;99.90;;;;;;4696949;30;20041;-74
2021/12/31 07:18:05;;;;;;;20.27;5.72;;;13.80;99.90;;;;;;4696921;30;20486;-74
2021/12/31 07:20:30;;;;;;;18.45;6.28;;;13.80;99.90;;;;;;4696962;30;20044;-74
2021/12/31 07:22:56;;;;;;;19.52;5.22;;;13.70;99.90;;;;;;4696996;30;20037;-74
2021/12/31 07:25:22;;;;;;;11.35;4.45;;;13.70;99.90;;;;;;4681149;30;20038;-74
2021/12/31 07:27:50;;;;;;;8.57;4.30;;;13.60;99.90;;;;;;4696509;30;20475;-74
2021/12/31 07:30:16;;;;;;;19.50;5.45;;;13.70;99.90;;;;;;4696955;30;20393;-73
2021/12/31 07:32:42;;;;;;;15.05;4.50;;;13.70;99.90;;;;;;4696834;30;20516;-74
2021/12/31 07:35:08;;;;;;;21.25;5.10;;;13.80;99.90;;;;;;4681328;30;20041;-74
2021/12/31 07:37:34;;;;;;;12.65;5.40;;;13.70;99.90;;;;;;4696692;30;20059;-74
2021/12/31 07:40:04;;;;;;;15.45;6.70;;;13.70;99.90;;;;;;4696933;30;20033;-74
2021/12/31 07:42:30;;;;;;;16.55;6.80;;;13.80;99.90;;;;;;4696456;30;20050;-74
2021/12/31 07:44:55;;;;;;;12.52;5.72;;;13.80;99.90;;;;;;4696503;30;20042;-74
2021/12/31 07:47:21;;;;;;;10.98;5.22;;;13.80;99.90;;;;;;4696491;30;20045;-74
2021/12/31 07:49:48;;;;;;;17.92;5.93;;;13.80;99.90;;;;;;4696501;30;20037;-73
2021/12/31 07:52:14;;;;;;;10.25;6.70;;;13.90;99.90;;;;;;4696270;30;20108;-74
2021/12/31 07:54:39;;;;;;;11.45;6.30;;;13.80;99.90;;;;;;4696394;30;20033;-74
2021/12/31 07:57:05;;;;;;;15.50;5.47;;;13.80;99.90;;;;;;4696261;30;20048;-74
2021/12/31 07:59:31;;;;;;;12.15;4.43;;;13.70;99.90;;;;;;4680543;30;20501;-74
2021/12/31 08:01:57;;;;;;;10.77;4.80;;;13.60;99.90;;;;;;4696319;30;20051;-74
2021/12/31 08:04:22;;;;;;;14.18;4.70;;;13.50;99.90;;;;;;4696255;30;20406;-74
2021/12/31 08:06:48;;;;;;;11.30;4.70;;;13.50;99.90;;;;;;4680605;30;20045;-73
2021/12/31 08:09:14;;;;;;;15.27;6.30;;;13.50;99.90;;;;;;4696062;30;20518;-74
2021/12/31 08:11:41;;;;;;;14.60;5.45;;;13.50;99.90;;;;;;4695872;30;20049;-74
2021/12/31 08:14:06;;;;;;;16.30;4.80;;;13.40;99.90;;;;;;4694850;30;20066;-74
2021/12/31 08:16:32;;;;;;;27.30;5.55;;;13.40;99.90;;;;;;4695969;30;20135;-74
2021/12/31 08:18:58;;;;;;;9.75;3.97;;;13.30;99.90;;;;;;4695945;30;20513;-73
2021/12/31 08:21:23;;;;;;;17.20;6.03;;;13.30;99.90;;;;;;4694674;30;20489;-74
2021/12/31 08:23:49;;;;;;;14.10;4.57;;;13.30;99.90;;;;;;4695431;30;20041;-74
2021/12/31 08:26:15;;;;;;;16.40;4.30;;;13.30;99.90;;;;;;4695243;30;20117;-73
2021/12/31 08:28:41;;;;;;;21.75;4.95;;;13.30;99.90;;;;;;4695324;30;20112;-73
2021/12/31 08:31:07;;;;;;;18.48;5.82;;;13.30;99.90;;;;;;4695640;30;20038;-74
2021/12/31 08:33:33;;;;;;;18.13;5.03;;;13.30;99.90;;;;;;4695644;30;20037;-74
2021/12/31 08:35:59;;;;;;;20.95;6.00;;;13.40;99.90;;;;;;4695801;30;20081;-74
2021/12/31 08:38:25;;;;;;;16.50;5.15;;;13.40;99.90;;;;;;4695468;30;20046;-74
2021/12/31 08:40:52;;;;;;;18.55;5.38;;;13.50;99.90;;;;;;4695529;30;20068;-74
2021/12/31 08:43:18;;;;;;;13.32;4.22;;;13.50;99.90;;;;;;4695249;30;20124;-74
2021/12/31 08:45:44;;;;;;;18.25;5.38;;;13.50;99.90;;;;;;4695437;30;20041;-74
2021/12/31 08:48:09;;;;;;;13.80;5.13;;;13.50;99.90;;;;;;4695632;30;20042;-74
2021/12/31 08:50:35;;;;;;;8.60;4.65;;;13.50;99.90;;;;;;4679573;30;20041;-74
2021/12/31 08:53:02;;;;;;;14.65;5.15;;;13.50;99.90;;;;;;4694956;30;20049;-74
2021/12/31 08:55:28;;;;;;;10.95;4.38;;;13.50;99.90;;;;;;4694800;30;20033;-73
2021/12/31 08:57:54;;;;;;;14.43;5.65;;;13.60;99.90;;;;;;4694910;30;20412;-74
2021/12/31 09:00:20;;;;;;;17.45;5.03;;;13.50;99.90;;;;;;4695319;30;20056;-74
2021/12/31 09:02:48;;;;;;;16.73;4.18;;;13.50;99.90;;;;;;4695035;30;20521;-74
2021/12/31 09:05:14;;;;;;;13.27;4.72;;;13.50;99.90;;;;;;4694963;30;20060;-74
2021/12/31 09:07:40;;;;;;;13.90;5.25;;;13.50;99.90;;;;;;4694895;30;20398;-73
2021/12/31 09:10:08;;;;;;;14.40;4.20;;;13.60;99.90;;;;;;4695072;30;20079;-74
2021/12/31 09:12:33;;;;;;;12.50;4.32;;;13.60;99.90;;;;;;4695169;30;20045;-74
2021/12/31 09:14:59;;;;;;;13.07;4.70;;;13.60;99.90;;;;;;4694945;30;20520;-73
2021/12/31 09:17:25;;;;;;;14.10;4.95;;;13.60;99.90;;;;;;4694701;30;20053;-73
2021/12/31 09:19:51;;;;;;;11.25;3.90;;;13.70;99.90;;;;;;4694890;30;20037;-74
2021/12/31 09:22:17;;;;;;;17.15;4.25;;;13.70;99.90;;;;;;4694808;30;20060;-74
2021/12/31 09:24:43;;;;;;;11.13;4.20;;;13.80;99.90;;;;;;4694652;30;20040;-74
2021/12/31 09:27:09;;;;;;;12.68;3.58;;;13.80;99.90;;;;;;4694419;30;20043;-73
2021/12/31 09:29:35;;;;;;;14.15;3.30;;;13.80;99.90;;;;;;4694449;30;20045;-74
2021/12/31 09:32:01;;;;;;;14.90;3.83;;;13.90;99.90;;;;;;4694298;30;20053;-74
2021/12/31 09:34:26;;;;;;;12.55;3.40;;;13.90;99.90;;;;;;4694402;30;20084;-74
2021/12/31 09:36:52;;;;;;;17.27;4.10;;;14.00;99.90;;;;;;4694611;30;20044;-74
2021/12/31 09:39:18;;;;;;;16.23;4.80;;;14.00;99.90;;;;;;4693295;30;20442;-74
2021/12/31 09:41:44;;;;;;;15.13;3.80;;;14.00;99.90;;;;;;4694535;30;20461;-74
2021/12/31 09:44:14;;;;;;;;;;;14.10;99.90;;;;;;4694871;30;20506;-74
2021/12/31 09:46:40;;;;;;;14.35;4.50;;;14.10;99.90;;;;;;4694458;30;19938;-74
2021/12/31 09:49:06;;;;;;;11.23;4.30;;;14.20;99.90;;;;;;4694511;30;20049;-74
2021/12/31 09:51:33;;;;;;;16.73;5.18;;;14.20;99.90;;;;;;4678894;30;20042;-73
2021/12/31 09:53:59;;;;;;;15.88;4.35;;;14.20;99.90;;;;;;4694114;30;20482;-74
2021/12/31 09:56:26;;;;;;;14.63;4.05;;;14.20;99.90;;;;;;4694396;30;20048;-74
2021/12/31 09:58:52;;;;;;;18.30;4.40;;;14.20;99.90;;;;;;4693406;30;20042;-74
2021/12/31 10:01:18;;;;;;;20.98;4.97;;;14.30;99.90;;;;;;4694312;30;20037;-74
2021/12/31 10:03:57;;;;;;;11.32;3.53;;;14.30;99.90;;;;;;4694502;30;20062;-73
2021/12/31 10:06:26;;;;;;;16.85;4.75;;;14.40;99.90;;;;;;4694181;30;20037;-74
2021/12/31 10:08:57;;;;;;;11.15;3.72;;;14.40;99.90;;;;;;4693898;30;20041;-74
2021/12/31 10:11:25;;;;;;;23.75;4.45;;;14.50;99.90;;;;;;4694099;30;20037;-74
2021/12/31 10:14:02;;;;;;;13.10;3.42;;;14.50;99.90;;;;;;4694590;30;20033;-74
2021/12/31 10:16:30;;;;;;;13.52;3.20;;;14.60;99.90;;;;;;4695251;30;20041;-74
2021/12/31 10:19:08;;;;;;;10.38;2.75;;;14.70;99.90;;;;;;4694886;30;20113;-74
2021/12/31 10:21:50;;;;;;;5.85;2.20;;;14.70;99.90;;;;;;4695088;30;20062;-74
2021/12/31 10:24:36;;;;;;;9.40;2.30;;;14.80;99.90;;;;;;4694844;30;20105;-74
2021/12/31 10:27:12;;;;;;;12.90;2.67;;;14.80;99.90;;;;;;4678425;30;20536;-75
2021/12/31 10:29:53;;;;;;;12.18;2.47;;;14.70;99.90;;;;;;4694657;30;20497;-74
2021/12/31 10:32:22;;;;;;;16.80;3.50;;;14.90;99.90;;;;;;4693274;30;20120;-74
2021/12/31 10:34:48;;;;;;;11.98;2.97;;;15.30;99.90;;;;;;4694601;30;20049;-74
2021/12/31 10:37:18;;;;;;;10.23;3.22;;;15.80;99.90;;;;;;4680915;30;20053;-75
2021/12/31 10:39:45;;;;;;;12.23;1.90;;;16.20;99.90;;;;;;4697424;30;20025;-73
2021/12/31 10:42:13;;;;;;;13.18;2.58;;;16.50;99.90;;;;;;4697619;30;20424;-74
2021/12/31 10:44:44;;;;;;;11.23;2.50;;;16.80;99.90;;;;;;4697824;30;20048;-74
2021/12/31 10:47:17;;;;;;;15.43;2.38;;;17.10;99.90;;;;;;4681715;30;20516;-74
2021/12/31 10:50:02;;;;;;;8.32;2.03;;;17.10;99.40;;;;;;4668842;30;20421;-74
2021/12/31 10:52:46;;;;;;;18.23;3.22;;;17.20;99.70;;;;;;4682432;30;20116;-74
2021/12/31 10:55:23;;;;;;;13.10;2.92;;;17.60;99.60;;;;;;4696211;30;20040;-74
2021/12/31 10:57:51;;;;;;;7.07;2.17;;;17.90;98.90;;;;;;4695475;30;20366;-75
2021/12/31 11:00:18;;;;;;;20.50;3.28;;;18.00;98.40;;;;;;4697275;30;20496;-75
2021/12/31 11:02:46;;;;;;;15.93;3.80;;;18.10;98.10;;;;;;4697425;30;20505;-76
2021/12/31 11:05:13;;;;;;;18.30;3.22;;;18.20;97.90;;;;;;4697704;30;20065;-74
2021/12/31 11:07:40;;;;;;;16.60;2.88;;;18.40;97.60;;;;;;4697496;30;20053;-71
2021/12/31 11:10:08;;;;;;;9.95;2.45;;;18.50;97.40;;;;;;4697372;30;20038;-74
2021/12/31 11:12:37;;;;;;;10.60;2.65;;;18.60;96.60;;;;;;4681433;30;20145;-74
2021/12/31 11:15:04;;;;;;;11.50;3.10;;;18.60;96.50;;;;;;4697664;30;20048;-74
2021/12/31 11:17:31;;;;;;;18.45;3.85;;;18.50;95.80;;;;;;4681578;30;20467;-74
2021/12/31 11:19:59;;;;;;;26.98;3.47;;;18.20;95.70;;;;;;4681828;30;20054;-75
2021/12/31 11:22:26;;;;;;;11.75;3.47;;;17.90;95.50;;;;;;4697104;30;20033;-74
2021/12/31 11:24:52;;;;;;;14.27;3.03;;;17.60;95.50;;;;;;4697341;30;20045;-73
2021/12/31 11:27:34;;;;;;;12.20;3.15;;;17.30;95.60;;;;;;4697127;30;20124;-73
2021/12/31 11:30:01;;;;;;;13.23;3.33;;;17.00;95.60;;;;;;4695763;30;20109;-75
2021/12/31 11:32:45;;;;;;;12.32;2.92;;;16.90;95.90;;;;;;4697237;30;20366;-75
2021/12/31 11:35:32;;;;;;;9.98;2.35;;;16.60;96.10;;;;;;4681435;30;20036;-75
2021/12/31 11:37:59;;;;;;;16.77;3.47;;;16.40;96.40;;;;;;4680885;30;20102;-74
2021/12/31 11:40:40;;;;;;;12.35;2.97;;;16.20;96.60;;;;;;4696800;30;20116;-75
2021/12/31 11:43:25;;;;;;;15.00;3.70;;;16.10;96.90;;;;;;4696994;30;20065;-74
2021/12/31 11:48:49;;;;;;;13.40;2.83;;;16.00;97.40;;;;;;4696660;30;20486;-72
2021/12/31 11:51:16;;;;;;;16.73;3.83;;;16.00;97.70;;;;;;4696530;30;20379;-73
2021/12/31 11:53:58;;;;;;;11.98;3.22;;;16.10;97.60;;;;;;4696532;30;20117;-74
2021/12/31 11:56:45;;;;;;;11.70;2.55;;;16.20;97.90;;;;;;4680745;30;20482;-74
2021/12/31 11:59:11;;;;;;;19.73;3.10;;;16.50;98.50;;;;;;4695733;30;20037;-73
2021/12/31 12:01:37;;;;;;;16.13;3.72;;;17.10;98.90;;;;;;4680239;30;20060;-76
2021/12/31 12:07:40;;;;;;;12.20;2.33;;;18.40;97.50;;;;;;4692690;30;20037;-74
2021/12/31 12:10:06;;;;;;;12.55;2.42;;;18.90;96.40;;;;;;4696132;30;20481;-76
2021/12/31 12:12:36;;;;;;;11.57;2.88;;;19.30;96.00;;;;;;4695409;30;20041;-73
2021/12/31 12:15:14;;;;;;;12.40;1.98;;;19.60;95.70;;;;;;4679588;30;20564;-74
2021/12/31 12:17:43;;;;;;;14.38;2.67;;;19.80;94.60;;;;;;4695434;30;20083;-74
2021/12/31 12:20:18;;;;;;;10.30;2.70;;;19.90;94.20;;;;;;4695716;30;20053;-74
2021/12/31 12:22:50;;;;;;;15.05;3.08;;;19.90;93.70;;;;;;4695856;30;20550;-73
2021/12/31 12:25:20;;;;;;;9.65;2.47;;;20.00;93.80;;;;;;4695310;30;20034;-75
2021/12/31 12:27:48;;;;;;;13.18;3.05;;;19.90;93.20;;;;;;4694830;30;20377;-74
2021/12/31 12:30:15;;;;;;;14.70;2.35;;;19.80;93.00;;;;;;4680145;30;20064;-75
2021/12/31 12:35:25;;;;;;;13.57;2.63;;;19.40;92.50;;;;;;4695531;30;20656;-74
2021/12/31 12:38:24;;;;;;;13.20;3.45;;;18.90;92.20;;;;;;4695784;30;20034;-73
2021/12/31 12:40:51;;;;;;;13.50;3.20;;;18.30;92.60;;;;;;4695390;30;20037;-73
2021/12/31 12:43:26;;;;;;;10.27;2.45;;;18.10;93.10;;;;;;4694953;30;20057;-75
2021/12/31 12:46:00;;;;;;;21.10;3.40;;;17.80;93.20;;;;;;4695660;30;20064;-74
2021/12/31 12:48:36;;;;;;;14.60;2.58;;;17.50;93.50;;;;;;4695471;30;20072;-72
2021/12/31 12:51:07;;;;;;;17.98;3.55;;;17.30;93.70;;;;;;4695504;30;20393;-72
2021/12/31 12:53:36;;;;;;;13.55;3.30;;;17.10;93.80;;;;;;4694639;30;20041;-73